sensor_id;sensor_type;location;lat;lon;timestamp;temperature;humidity
7325;DHT22;3703;48.016;7.802;2022-10-28T00:00:02;16.70;99.90
7325;DHT22;3703;48.016;7.802;2022-10-28T00:02:50;16.70;99.90
7325;DHT22;3703;48.016;7.802;2022-10-28T00:05:37;16.70;99.90
7325;DHT22;3703;48.016;7.802;2022-10-28T00:08:25;16.70;99.90
7325;DHT22;3703;48.016;7.802;2022-10-28T00:11:16;16.60;99.90
7325;DHT22;3703;48.016;7.802;2022-10-28T00:14:06;16.50;99.90
7325;DHT22;3703;48.016;7.802;2022-10-28T00:16:54;16.50;99.90
7325;DHT22;3703;48.016;7.802;2022-10-28T00:19:41;16.40;99.90
7325;DHT22;3703;48.016;7.802;2022-10-28T00:22:29;16.30;99.90
7325;DHT22;3703;48.016;7.802;2022-10-28T00:25:16;16.10;99.90
7325;DHT22;3703;48.016;7.802;2022-10-28T00:28:10;16.00;99.90
7325;DHT22;3703;48.016;7.802;2022-10-28T00:31:03;15.90;99.90
7325;DHT22;3703;48.016;7.802;2022-10-28T00:33:52;15.90;99.90
7325;DHT22;3703;48.016;7.802;2022-10-28T00:36:41;15.70;99.90
7325;DHT22;3703;48.016;7.802;2022-10-28T00:39:29;15.80;99.90
7325;DHT22;3703;48.016;7.802;2022-10-28T00:42:20;15.80;99.90
7325;DHT22;3703;48.016;7.802;2022-10-28T00:45:10;15.60;99.90
7325;DHT22;3703;48.016;7.802;2022-10-28T00:48:00;15.50;99.90
7325;DHT22;3703;48.016;7.802;2022-10-28T00:50:50;15.30;99.90
7325;DHT22;3703;48.016;7.802;2022-10-28T00:53:38;15.30;99.90
7325;DHT22;3703;48.016;7.802;2022-10-28T00:56:30;15.50;99.90
7325;DHT22;3703;48.016;7.802;2022-10-28T00:59:24;15.50;99.90
7325;DHT22;3703;48.016;7.802;2022-10-28T01:02:15;15.50;99.90
7325;DHT22;3703;48.016;7.802;2022-10-28T01:05:05;15.40;99.90
7325;DHT22;3703;48.016;7.802;2022-10-28T01:07:56;15.40;99.90
7325;DHT22;3703;48.016;7.802;2022-10-28T01:11:01;15.40;99.90
7325;DHT22;3703;48.016;7.802;2022-10-28T01:14:14;15.30;99.90
7325;DHT22;3703;48.016;7.802;2022-10-28T01:17:15;15.10;99.90
7325;DHT22;3703;48.016;7.802;2022-10-28T01:24:09;15.20;99.90
7325;DHT22;3703;48.016;7.802;2022-10-28T01:27:27;15.00;99.90
7325;DHT22;3703;48.016;7.802;2022-10-28T01:31:07;15.00;99.90
7325;DHT22;3703;48.016;7.802;2022-10-28T01:34:08;15.10;99.90
7325;DHT22;3703;48.016;7.802;2022-10-28T01:37:05;15.10;99.90
7325;DHT22;3703;48.016;7.802;2022-10-28T01:40:03;15.20;99.90
7325;DHT22;3703;48.016;7.802;2022-10-28T01:42:58;15.20;99.90
7325;DHT22;3703;48.016;7.802;2022-10-28T01:45:58;15.20;99.90
7325;DHT22;3703;48.016;7.802;2022-10-28T01:48:52;15.20;99.90
7325;DHT22;3703;48.016;7.802;2022-10-28T01:51:44;15.20;99.90
7325;DHT22;3703;48.016;7.802;2022-10-28T01:54:34;15.20;99.90
7325;DHT22;3703;48.016;7.802;2022-10-28T01:57:23;15.00;99.90
7325;DHT22;3703;48.016;7.802;2022-10-28T02:00:12;14.80;99.90
7325;DHT22;3703;48.016;7.802;2022-10-28T02:03:00;14.80;99.90
7325;DHT22;3703;48.016;7.802;2022-10-28T02:05:52;14.90;99.90
7325;DHT22;3703;48.016;7.802;2022-10-28T02:08:56;14.90;99.90
7325;DHT22;3703;48.016;7.802;2022-10-28T02:12:21;14.80;99.90
7325;DHT22;3703;48.016;7.802;2022-10-28T02:15:19;14.70;99.90
7325;DHT22;3703;48.016;7.802;2022-10-28T02:18:21;14.80;99.90
7325;DHT22;3703;48.016;7.802;2022-10-28T02:21:16;14.80;99.90
7325;DHT22;3703;48.016;7.802;2022-10-28T02:24:10;14.70;99.90
7325;DHT22;3703;48.016;7.802;2022-10-28T02:27:07;14.50;99.90
7325;DHT22;3703;48.016;7.802;2022-10-28T02:30:04;14.50;99.90
7325;DHT22;3703;48.016;7.802;2022-10-28T02:32:56;14.40;99.90
7325;DHT22;3703;48.016;7.802;2022-10-28T02:35:48;14.50;99.90
7325;DHT22;3703;48.016;7.802;2022-10-28T02:38:43;14.60;99.90
7325;DHT22;3703;48.016;7.802;2022-10-28T02:41:39;15.20;99.90
7325;DHT22;3703;48.016;7.802;2022-10-28T02:44:31;14.60;99.90
7325;DHT22;3703;48.016;7.802;2022-10-28T02:47:25;14.50;99.90
7325;DHT22;3703;48.016;7.802;2022-10-28T02:50:17;14.60;99.90
7325;DHT22;3703;48.016;7.802;2022-10-28T02:53:11;14.50;99.90
7325;DHT22;3703;48.016;7.802;2022-10-28T02:56:03;14.60;99.90
7325;DHT22;3703;48.016;7.802;2022-10-28T02:58:52;14.60;99.90
7325;DHT22;3703;48.016;7.802;2022-10-28T03:01:39;14.50;99.90
7325;DHT22;3703;48.016;7.802;2022-10-28T03:04:27;14.50;99.90
7325;DHT22;3703;48.016;7.802;2022-10-28T03:07:15;14.50;99.90
7325;DHT22;3703;48.016;7.802;2022-10-28T03:10:03;14.50;99.90
7325;DHT22;3703;48.016;7.802;2022-10-28T03:12:52;14.50;99.90
7325;DHT22;3703;48.016;7.802;2022-10-28T03:15:40;14.50;99.90
7325;DHT22;3703;48.016;7.802;2022-10-28T03:18:27;14.50;99.90
7325;DHT22;3703;48.016;7.802;2022-10-28T03:21:15;14.40;99.90
7325;DHT22;3703;48.016;7.802;2022-10-28T03:24:03;14.40;99.90
7325;DHT22;3703;48.016;7.802;2022-10-28T03:26:51;14.30;99.90
7325;DHT22;3703;48.016;7.802;2022-10-28T03:29:40;14.30;99.90
7325;DHT22;3703;48.016;7.802;2022-10-28T03:32:28;14.30;99.90
7325;DHT22;3703;48.016;7.802;2022-10-28T03:35:15;14.30;99.90
7325;DHT22;3703;48.016;7.802;2022-10-28T03:38:03;14.20;99.90
7325;DHT22;3703;48.016;7.802;2022-10-28T03:40:50;14.30;99.90
7325;DHT22;3703;48.016;7.802;2022-10-28T03:43:38;14.40;99.90
7325;DHT22;3703;48.016;7.802;2022-10-28T03:46:27;14.30;99.90
7325;DHT22;3703;48.016;7.802;2022-10-28T03:49:14;14.30;99.90
7325;DHT22;3703;48.016;7.802;2022-10-28T03:52:02;14.40;99.90
7325;DHT22;3703;48.016;7.802;2022-10-28T03:54:50;14.50;99.90
7325;DHT22;3703;48.016;7.802;2022-10-28T03:57:37;14.50;99.90
7325;DHT22;3703;48.016;7.802;2022-10-28T04:00:25;14.40;99.90
7325;DHT22;3703;48.016;7.802;2022-10-28T04:03:14;14.40;99.90
7325;DHT22;3703;48.016;7.802;2022-10-28T04:06:02;14.40;99.90
7325;DHT22;3703;48.016;7.802;2022-10-28T04:08:49;14.40;99.90
7325;DHT22;3703;48.016;7.802;2022-10-28T04:11:37;14.20;99.90
7325;DHT22;3703;48.016;7.802;2022-10-28T04:14:25;14.10;99.90
7325;DHT22;3703;48.016;7.802;2022-10-28T04:17:12;14.00;99.90
7325;DHT22;3703;48.016;7.802;2022-10-28T04:20:02;14.10;99.90
7325;DHT22;3703;48.016;7.802;2022-10-28T04:22:49;14.10;99.90
7325;DHT22;3703;48.016;7.802;2022-10-28T04:25:39;14.10;99.90
7325;DHT22;3703;48.016;7.802;2022-10-28T04:28:27;14.10;99.90
7325;DHT22;3703;48.016;7.802;2022-10-28T04:31:14;14.10;99.90
7325;DHT22;3703;48.016;7.802;2022-10-28T04:34:02;14.20;99.90
7325;DHT22;3703;48.016;7.802;2022-10-28T04:36:51;14.20;99.90
7325;DHT22;3703;48.016;7.802;2022-10-28T04:39:38;14.20;99.90
7325;DHT22;3703;48.016;7.802;2022-10-28T04:42:26;14.30;99.90
7325;DHT22;3703;48.016;7.802;2022-10-28T04:45:14;14.30;99.90
7325;DHT22;3703;48.016;7.802;2022-10-28T04:48:02;14.40;99.90
7325;DHT22;3703;48.016;7.802;2022-10-28T04:50:49;14.30;99.90
7325;DHT22;3703;48.016;7.802;2022-10-28T04:53:39;14.40;99.90
7325;DHT22;3703;48.016;7.802;2022-10-28T04:56:27;14.50;99.90
7325;DHT22;3703;48.016;7.802;2022-10-28T04:59:16;14.60;99.90
7325;DHT22;3703;48.016;7.802;2022-10-28T05:02:03;14.60;99.90
7325;DHT22;3703;48.016;7.802;2022-10-28T05:04:51;14.60;99.90
7325;DHT22;3703;48.016;7.802;2022-10-28T05:07:38;14.60;99.90
7325;DHT22;3703;48.016;7.802;2022-10-28T05:10:27;14.50;99.90
7325;DHT22;3703;48.016;7.802;2022-10-28T05:13:15;14.50;99.90
7325;DHT22;3703;48.016;7.802;2022-10-28T05:16:03;14.50;99.90
7325;DHT22;3703;48.016;7.802;2022-10-28T05:18:51;14.50;99.90
7325;DHT22;3703;48.016;7.802;2022-10-28T05:21:39;14.60;99.90
7325;DHT22;3703;48.016;7.802;2022-10-28T05:24:26;14.80;99.90
7325;DHT22;3703;48.016;7.802;2022-10-28T05:27:16;14.80;99.90
7325;DHT22;3703;48.016;7.802;2022-10-28T05:30:04;14.80;99.90
7325;DHT22;3703;48.016;7.802;2022-10-28T05:32:58;14.70;99.90
7325;DHT22;3703;48.016;7.802;2022-10-28T05:35:46;14.70;99.90
7325;DHT22;3703;48.016;7.802;2022-10-28T05:38:34;14.70;99.90
7325;DHT22;3703;48.016;7.802;2022-10-28T05:41:21;14.70;99.90
7325;DHT22;3703;48.016;7.802;2022-10-28T05:44:10;14.60;99.90
7325;DHT22;3703;48.016;7.802;2022-10-28T05:46:58;14.60;99.90
7325;DHT22;3703;48.016;7.802;2022-10-28T05:49:45;14.50;99.90
7325;DHT22;3703;48.016;7.802;2022-10-28T05:52:33;14.50;99.90
7325;DHT22;3703;48.016;7.802;2022-10-28T05:55:23;14.60;99.90
7325;DHT22;3703;48.016;7.802;2022-10-28T05:58:13;14.60;99.90
7325;DHT22;3703;48.016;7.802;2022-10-28T06:01:05;14.70;99.90
7325;DHT22;3703;48.016;7.802;2022-10-28T06:03:53;14.80;99.90
7325;DHT22;3703;48.016;7.802;2022-10-28T06:06:41;14.90;99.90
7325;DHT22;3703;48.016;7.802;2022-10-28T06:09:28;14.90;99.90
7325;DHT22;3703;48.016;7.802;2022-10-28T06:12:16;15.00;99.90
7325;DHT22;3703;48.016;7.802;2022-10-28T06:15:04;15.00;99.90
7325;DHT22;3703;48.016;7.802;2022-10-28T06:17:53;15.00;99.90
7325;DHT22;3703;48.016;7.802;2022-10-28T06:20:41;14.90;99.90
7325;DHT22;3703;48.016;7.802;2022-10-28T06:23:28;15.00;99.90
7325;DHT22;3703;48.016;7.802;2022-10-28T06:26:16;15.10;99.90
7325;DHT22;3703;48.016;7.802;2022-10-28T06:29:04;15.10;99.90
7325;DHT22;3703;48.016;7.802;2022-10-28T06:31:51;15.20;99.90
7325;DHT22;3703;48.016;7.802;2022-10-28T06:34:40;15.20;99.90
7325;DHT22;3703;48.016;7.802;2022-10-28T06:37:28;15.10;99.90
7325;DHT22;3703;48.016;7.802;2022-10-28T06:40:15;15.20;99.90
7325;DHT22;3703;48.016;7.802;2022-10-28T06:43:04;15.20;99.90
7325;DHT22;3703;48.016;7.802;2022-10-28T06:45:53;15.10;99.90
7325;DHT22;3703;48.016;7.802;2022-10-28T06:48:42;15.10;99.90
7325;DHT22;3703;48.016;7.802;2022-10-28T06:51:31;15.20;99.90
7325;DHT22;3703;48.016;7.802;2022-10-28T06:54:19;15.20;99.90
7325;DHT22;3703;48.016;7.802;2022-10-28T06:57:07;15.10;99.90
7325;DHT22;3703;48.016;7.802;2022-10-28T06:59:54;15.20;99.90
7325;DHT22;3703;48.016;7.802;2022-10-28T07:02:42;15.20;99.90
7325;DHT22;3703;48.016;7.802;2022-10-28T07:05:30;15.20;99.90
7325;DHT22;3703;48.016;7.802;2022-10-28T07:08:19;15.10;99.90
7325;DHT22;3703;48.016;7.802;2022-10-28T07:11:06;15.20;99.90
7325;DHT22;3703;48.016;7.802;2022-10-28T07:13:54;15.20;99.90
7325;DHT22;3703;48.016;7.802;2022-10-28T07:16:42;15.30;99.90
7325;DHT22;3703;48.016;7.802;2022-10-28T07:19:29;15.30;99.90
7325;DHT22;3703;48.016;7.802;2022-10-28T07:22:17;15.40;99.90
7325;DHT22;3703;48.016;7.802;2022-10-28T07:25:07;15.50;99.90
7325;DHT22;3703;48.016;7.802;2022-10-28T07:27:56;15.60;99.90
7325;DHT22;3703;48.016;7.802;2022-10-28T07:30:44;15.70;99.90
7325;DHT22;3703;48.016;7.802;2022-10-28T07:33:32;15.80;99.90
7325;DHT22;3703;48.016;7.802;2022-10-28T07:36:19;15.90;99.90
7325;DHT22;3703;48.016;7.802;2022-10-28T07:39:08;15.90;99.90
7325;DHT22;3703;48.016;7.802;2022-10-28T07:41:58;16.00;99.90
7325;DHT22;3703;48.016;7.802;2022-10-28T07:44:46;16.00;99.90
7325;DHT22;3703;48.016;7.802;2022-10-28T07:47:34;16.00;99.90
7325;DHT22;3703;48.016;7.802;2022-10-28T07:50:21;16.10;99.90
7325;DHT22;3703;48.016;7.802;2022-10-28T07:53:09;16.10;99.90
7325;DHT22;3703;48.016;7.802;2022-10-28T07:55:57;16.00;99.90
7325;DHT22;3703;48.016;7.802;2022-10-28T07:58:47;16.30;99.90
7325;DHT22;3703;48.016;7.802;2022-10-28T08:01:35;16.30;99.90
7325;DHT22;3703;48.016;7.802;2022-10-28T08:04:23;16.40;99.90
7325;DHT22;3703;48.016;7.802;2022-10-28T08:07:11;16.60;99.90
7325;DHT22;3703;48.016;7.802;2022-10-28T08:10:00;16.50;99.90
7325;DHT22;3703;48.016;7.802;2022-10-28T08:12:47;16.50;99.90
7325;DHT22;3703;48.016;7.802;2022-10-28T08:15:36;16.60;99.90
7325;DHT22;3703;48.016;7.802;2022-10-28T08:18:24;16.70;99.90
7325;DHT22;3703;48.016;7.802;2022-10-28T08:21:13;16.80;99.90
7325;DHT22;3703;48.016;7.802;2022-10-28T08:24:01;16.90;99.90
7325;DHT22;3703;48.016;7.802;2022-10-28T08:26:48;17.00;99.90
7325;DHT22;3703;48.016;7.802;2022-10-28T08:29:36;17.10;99.90
7325;DHT22;3703;48.016;7.802;2022-10-28T08:32:25;17.20;99.90
7325;DHT22;3703;48.016;7.802;2022-10-28T08:35:13;17.50;99.90
7325;DHT22;3703;48.016;7.802;2022-10-28T08:38:00;18.20;99.90
7325;DHT22;3703;48.016;7.802;2022-10-28T08:40:55;19.70;99.90
7325;DHT22;3703;48.016;7.802;2022-10-28T08:43:59;21.10;99.90
7325;DHT22;3703;48.016;7.802;2022-10-28T08:47:12;22.20;99.90
7325;DHT22;3703;48.016;7.802;2022-10-28T08:50:10;23.10;99.90
7325;DHT22;3703;48.016;7.802;2022-10-28T08:53:03;23.10;99.90
7325;DHT22;3703;48.016;7.802;2022-10-28T08:55:58;23.10;99.90
7325;DHT22;3703;48.016;7.802;2022-10-28T08:58:53;23.60;99.90
7325;DHT22;3703;48.016;7.802;2022-10-28T09:01:47;24.20;99.90
7325;DHT22;3703;48.016;7.802;2022-10-28T09:04:37;24.90;99.90
7325;DHT22;3703;48.016;7.802;2022-10-28T09:07:36;24.60;99.90
7325;DHT22;3703;48.016;7.802;2022-10-28T09:11:00;23.80;99.90
7325;DHT22;3703;48.016;7.802;2022-10-28T09:14:02;23.40;99.90
7325;DHT22;3703;48.016;7.802;2022-10-28T09:17:06;22.80;99.90
7325;DHT22;3703;48.016;7.802;2022-10-28T09:20:05;22.50;99.90
7325;DHT22;3703;48.016;7.802;2022-10-28T09:22:59;22.40;99.90
7325;DHT22;3703;48.016;7.802;2022-10-28T09:26:02;22.50;99.90
7325;DHT22;3703;48.016;7.802;2022-10-28T09:29:03;22.30;99.90
7325;DHT22;3703;48.016;7.802;2022-10-28T09:32:00;22.20;99.90
7325;DHT22;3703;48.016;7.802;2022-10-28T09:34:53;21.80;99.90
7325;DHT22;3703;48.016;7.802;2022-10-28T09:37:47;21.90;99.90
7325;DHT22;3703;48.016;7.802;2022-10-28T09:40:40;22.40;99.90
7325;DHT22;3703;48.016;7.802;2022-10-28T09:43:32;22.60;99.90
7325;DHT22;3703;48.016;7.802;2022-10-28T09:46:23;22.40;99.90
7325;DHT22;3703;48.016;7.802;2022-10-28T09:49:17;21.90;99.90
7325;DHT22;3703;48.016;7.802;2022-10-28T09:52:12;21.70;99.90
7325;DHT22;3703;48.016;7.802;2022-10-28T09:55:07;21.80;99.90
7325;DHT22;3703;48.016;7.802;2022-10-28T09:58:03;22.10;99.90
7325;DHT22;3703;48.016;7.802;2022-10-28T10:00:51;22.60;99.90
7325;DHT22;3703;48.016;7.802;2022-10-28T10:03:39;22.80;99.90
7325;DHT22;3703;48.016;7.802;2022-10-28T10:06:30;23.10;99.90
7325;DHT22;3703;48.016;7.802;2022-10-28T10:09:23;23.40;99.90
7325;DHT22;3703;48.016;7.802;2022-10-28T10:12:13;23.60;99.90
7325;DHT22;3703;48.016;7.802;2022-10-28T10:15:05;24.00;99.90
7325;DHT22;3703;48.016;7.802;2022-10-28T10:17:57;24.10;99.90
7325;DHT22;3703;48.016;7.802;2022-10-28T10:20:49;24.20;99.90
7325;DHT22;3703;48.016;7.802;2022-10-28T10:23:38;24.30;99.90
7325;DHT22;3703;48.016;7.802;2022-10-28T10:26:30;24.30;99.90
7325;DHT22;3703;48.016;7.802;2022-10-28T10:29:19;24.20;99.90
7325;DHT22;3703;48.016;7.802;2022-10-28T10:32:15;24.20;99.90
7325;DHT22;3703;48.016;7.802;2022-10-28T10:35:22;24.20;99.90
7325;DHT22;3703;48.016;7.802;2022-10-28T10:38:14;24.40;99.90
7325;DHT22;3703;48.016;7.802;2022-10-28T10:41:02;24.50;99.90
7325;DHT22;3703;48.016;7.802;2022-10-28T10:43:50;24.40;99.90
7325;DHT22;3703;48.016;7.802;2022-10-28T10:46:38;24.40;99.90
7325;DHT22;3703;48.016;7.802;2022-10-28T10:49:28;24.70;99.90
7325;DHT22;3703;48.016;7.802;2022-10-28T10:52:18;25.50;99.90
7325;DHT22;3703;48.016;7.802;2022-10-28T10:55:19;26.40;99.90
7325;DHT22;3703;48.016;7.802;2022-10-28T10:58:15;27.10;99.90
7325;DHT22;3703;48.016;7.802;2022-10-28T11:01:06;27.70;99.90
7325;DHT22;3703;48.016;7.802;2022-10-28T11:03:56;27.80;99.90
7325;DHT22;3703;48.016;7.802;2022-10-28T11:06:50;28.40;99.90
7325;DHT22;3703;48.016;7.802;2022-10-28T11:09:39;28.60;99.90
7325;DHT22;3703;48.016;7.802;2022-10-28T11:12:30;29.30;99.90
7325;DHT22;3703;48.016;7.802;2022-10-28T11:15:22;29.80;99.90
7325;DHT22;3703;48.016;7.802;2022-10-28T11:18:16;30.20;99.90
7325;DHT22;3703;48.016;7.802;2022-10-28T11:21:10;30.60;99.90
7325;DHT22;3703;48.016;7.802;2022-10-28T11:24:15;31.00;99.90
7325;DHT22;3703;48.016;7.802;2022-10-28T11:27:14;30.90;99.90
7325;DHT22;3703;48.016;7.802;2022-10-28T11:30:13;30.60;99.90
7325;DHT22;3703;48.016;7.802;2022-10-28T11:33:09;30.40;99.90
7325;DHT22;3703;48.016;7.802;2022-10-28T11:36:06;29.90;99.90
7325;DHT22;3703;48.016;7.802;2022-10-28T11:39:18;29.30;99.90
7325;DHT22;3703;48.016;7.802;2022-10-28T11:42:14;29.20;99.90
7325;DHT22;3703;48.016;7.802;2022-10-28T11:45:16;29.10;99.90
7325;DHT22;3703;48.016;7.802;2022-10-28T11:48:24;28.70;99.90
7325;DHT22;3703;48.016;7.802;2022-10-28T11:51:28;28.10;99.90
7325;DHT22;3703;48.016;7.802;2022-10-28T11:54:32;27.60;99.90
7325;DHT22;3703;48.016;7.802;2022-10-28T11:57:39;27.40;99.90
7325;DHT22;3703;48.016;7.802;2022-10-28T12:00:42;27.80;99.90
7325;DHT22;3703;48.016;7.802;2022-10-28T12:03:46;28.30;99.90
7325;DHT22;3703;48.016;7.802;2022-10-28T12:10:30;29.10;99.90
7325;DHT22;3703;48.016;7.802;2022-10-28T12:13:39;29.30;99.90
7325;DHT22;3703;48.016;7.802;2022-10-28T12:16:35;29.40;99.90
7325;DHT22;3703;48.016;7.802;2022-10-28T12:19:30;29.10;99.90
7325;DHT22;3703;48.016;7.802;2022-10-28T12:22:22;28.90;99.90
7325;DHT22;3703;48.016;7.802;2022-10-28T12:25:16;29.00;99.90
7325;DHT22;3703;48.016;7.802;2022-10-28T12:28:17;28.80;99.90
7325;DHT22;3703;48.016;7.802;2022-10-28T12:31:16;28.30;99.90
7325;DHT22;3703;48.016;7.802;2022-10-28T12:34:11;28.60;99.90
7325;DHT22;3703;48.016;7.802;2022-10-28T12:37:05;28.70;99.90
7325;DHT22;3703;48.016;7.802;2022-10-28T12:39:59;28.60;99.90
7325;DHT22;3703;48.016;7.802;2022-10-28T12:42:52;28.20;99.90
7325;DHT22;3703;48.016;7.802;2022-10-28T12:45:47;28.10;99.90
7325;DHT22;3703;48.016;7.802;2022-10-28T12:48:41;28.10;99.90
7325;DHT22;3703;48.016;7.802;2022-10-28T12:51:35;28.40;99.90
7325;DHT22;3703;48.016;7.802;2022-10-28T12:54:29;28.60;99.90
7325;DHT22;3703;48.016;7.802;2022-10-28T12:57:24;28.80;99.90
7325;DHT22;3703;48.016;7.802;2022-10-28T13:00:16;28.80;99.90
7325;DHT22;3703;48.016;7.802;2022-10-28T13:03:11;28.80;99.60
7325;DHT22;3703;48.016;7.802;2022-10-28T13:06:13;28.50;98.40
7325;DHT22;3703;48.016;7.802;2022-10-28T13:09:41;28.30;98.50
7325;DHT22;3703;48.016;7.802;2022-10-28T13:19:55;28.20;96.70
7325;DHT22;3703;48.016;7.802;2022-10-28T13:23:19;28.30;95.10
7325;DHT22;3703;48.016;7.802;2022-10-28T13:26:21;28.50;95.20
7325;DHT22;3703;48.016;7.802;2022-10-28T13:29:19;28.40;93.80
7325;DHT22;3703;48.016;7.802;2022-10-28T13:32:31;28.40;93.30
7325;DHT22;3703;48.016;7.802;2022-10-28T13:35:24;28.30;91.70
7325;DHT22;3703;48.016;7.802;2022-10-28T13:38:18;28.30;91.90
7325;DHT22;3703;48.016;7.802;2022-10-28T13:41:28;28.00;88.90
7325;DHT22;3703;48.016;7.802;2022-10-28T13:44:26;27.70;91.60
7325;DHT22;3703;48.016;7.802;2022-10-28T13:47:32;27.90;90.60
7325;DHT22;3703;48.016;7.802;2022-10-28T13:50:31;28.10;91.40
7325;DHT22;3703;48.016;7.802;2022-10-28T13:53:40;28.50;91.00
7325;DHT22;3703;48.016;7.802;2022-10-28T13:56:44;28.60;90.00
7325;DHT22;3703;48.016;7.802;2022-10-28T13:59:51;28.30;89.00
7325;DHT22;3703;48.016;7.802;2022-10-28T14:02:44;27.90;90.60
7325;DHT22;3703;48.016;7.802;2022-10-28T14:05:53;27.70;90.30
7325;DHT22;3703;48.016;7.802;2022-10-28T14:08:42;27.70;90.90
7325;DHT22;3703;48.016;7.802;2022-10-28T14:11:30;27.90;91.90
7325;DHT22;3703;48.016;7.802;2022-10-28T14:14:19;28.10;92.40
7325;DHT22;3703;48.016;7.802;2022-10-28T14:17:18;28.10;92.10
7325;DHT22;3703;48.016;7.802;2022-10-28T14:20:22;28.20;92.40
7325;DHT22;3703;48.016;7.802;2022-10-28T14:23:59;27.90;92.60
7325;DHT22;3703;48.016;7.802;2022-10-28T14:27:18;27.50;92.50
7325;DHT22;3703;48.016;7.802;2022-10-28T14:30:18;27.10;92.40
7325;DHT22;3703;48.016;7.802;2022-10-28T14:33:25;26.90;92.40
7325;DHT22;3703;48.016;7.802;2022-10-28T14:36:24;26.70;92.80
7325;DHT22;3703;48.016;7.802;2022-10-28T14:39:34;26.80;94.20
7325;DHT22;3703;48.016;7.802;2022-10-28T14:42:40;26.90;93.70
7325;DHT22;3703;48.016;7.802;2022-10-28T14:45:48;27.00;93.40
7325;DHT22;3703;48.016;7.802;2022-10-28T14:48:48;26.90;93.40
7325;DHT22;3703;48.016;7.802;2022-10-28T14:51:39;27.00;94.00
7325;DHT22;3703;48.016;7.802;2022-10-28T14:54:32;26.90;94.20
7325;DHT22;3703;48.016;7.802;2022-10-28T14:57:26;26.90;94.10
7325;DHT22;3703;48.016;7.802;2022-10-28T15:00:18;26.90;94.20
7325;DHT22;3703;48.016;7.802;2022-10-28T15:03:09;26.60;94.10
7325;DHT22;3703;48.016;7.802;2022-10-28T15:06:00;26.50;95.00
7325;DHT22;3703;48.016;7.802;2022-10-28T15:08:48;26.40;95.40
7325;DHT22;3703;48.016;7.802;2022-10-28T15:11:41;26.50;95.80
7325;DHT22;3703;48.016;7.802;2022-10-28T15:14:33;26.40;94.00
7325;DHT22;3703;48.016;7.802;2022-10-28T15:17:25;26.30;94.10
7325;DHT22;3703;48.016;7.802;2022-10-28T15:20:19;26.20;94.40
7325;DHT22;3703;48.016;7.802;2022-10-28T15:23:12;26.10;94.80
7325;DHT22;3703;48.016;7.802;2022-10-28T15:26:08;26.00;96.10
7325;DHT22;3703;48.016;7.802;2022-10-28T15:28:59;25.90;95.50
7325;DHT22;3703;48.016;7.802;2022-10-28T15:32:11;25.80;95.30
7325;DHT22;3703;48.016;7.802;2022-10-28T15:35:36;25.60;96.00
7325;DHT22;3703;48.016;7.802;2022-10-28T15:38:37;25.50;96.10
7325;DHT22;3703;48.016;7.802;2022-10-28T15:41:46;25.30;96.20
7325;DHT22;3703;48.016;7.802;2022-10-28T15:44:38;25.40;96.90
7325;DHT22;3703;48.016;7.802;2022-10-28T15:47:31;25.30;96.50
7325;DHT22;3703;48.016;7.802;2022-10-28T15:50:29;25.20;96.70
7325;DHT22;3703;48.016;7.802;2022-10-28T15:53:30;25.10;96.10
7325;DHT22;3703;48.016;7.802;2022-10-28T15:56:21;24.90;96.40
7325;DHT22;3703;48.016;7.802;2022-10-28T15:59:18;24.90;96.40
7325;DHT22;3703;48.016;7.802;2022-10-28T16:02:39;24.80;95.90
7325;DHT22;3703;48.016;7.802;2022-10-28T16:05:51;24.80;96.70
7325;DHT22;3703;48.016;7.802;2022-10-28T16:08:40;24.70;99.90
7325;DHT22;3703;48.016;7.802;2022-10-28T16:11:28;24.50;99.90
7325;DHT22;3703;48.016;7.802;2022-10-28T16:14:37;24.40;99.90
7325;DHT22;3703;48.016;7.802;2022-10-28T16:17:28;24.30;99.90
7325;DHT22;3703;48.016;7.802;2022-10-28T16:20:20;24.10;99.90
7325;DHT22;3703;48.016;7.802;2022-10-28T16:23:14;23.80;99.90
7325;DHT22;3703;48.016;7.802;2022-10-28T16:26:03;23.70;99.90
7325;DHT22;3703;48.016;7.802;2022-10-28T16:28:51;23.50;99.90
7325;DHT22;3703;48.016;7.802;2022-10-28T16:31:40;23.30;99.90
7325;DHT22;3703;48.016;7.802;2022-10-28T16:34:28;22.90;99.90
7325;DHT22;3703;48.016;7.802;2022-10-28T16:37:21;22.70;99.90
7325;DHT22;3703;48.016;7.802;2022-10-28T16:40:10;22.70;99.90
7325;DHT22;3703;48.016;7.802;2022-10-28T16:42:58;22.60;99.90
7325;DHT22;3703;48.016;7.802;2022-10-28T16:45:46;22.70;99.90
7325;DHT22;3703;48.016;7.802;2022-10-28T16:48:35;22.60;99.90
7325;DHT22;3703;48.016;7.802;2022-10-28T16:51:23;22.60;99.90
7325;DHT22;3703;48.016;7.802;2022-10-28T16:54:12;22.50;99.90
7325;DHT22;3703;48.016;7.802;2022-10-28T16:57:00;22.40;99.90
7325;DHT22;3703;48.016;7.802;2022-10-28T16:59:48;22.40;99.90
7325;DHT22;3703;48.016;7.802;2022-10-28T17:02:36;22.40;99.90
7325;DHT22;3703;48.016;7.802;2022-10-28T17:05:24;22.30;99.90
7325;DHT22;3703;48.016;7.802;2022-10-28T17:08:11;22.10;99.90
7325;DHT22;3703;48.016;7.802;2022-10-28T17:11:00;22.00;99.90
7325;DHT22;3703;48.016;7.802;2022-10-28T17:13:49;22.00;99.90
7325;DHT22;3703;48.016;7.802;2022-10-28T17:16:37;22.00;99.90
7325;DHT22;3703;48.016;7.802;2022-10-28T17:19:24;22.00;99.90
7325;DHT22;3703;48.016;7.802;2022-10-28T17:22:12;22.20;99.90
7325;DHT22;3703;48.016;7.802;2022-10-28T17:25:00;21.90;99.90
7325;DHT22;3703;48.016;7.802;2022-10-28T17:27:51;21.80;99.90
7325;DHT22;3703;48.016;7.802;2022-10-28T17:30:39;21.70;99.90
7325;DHT22;3703;48.016;7.802;2022-10-28T17:33:26;21.60;99.90
7325;DHT22;3703;48.016;7.802;2022-10-28T17:36:14;21.50;99.90
7325;DHT22;3703;48.016;7.802;2022-10-28T17:39:02;21.50;99.90
7325;DHT22;3703;48.016;7.802;2022-10-28T17:41:49;21.40;99.90
7325;DHT22;3703;48.016;7.802;2022-10-28T17:44:38;21.20;99.90
7325;DHT22;3703;48.016;7.802;2022-10-28T17:47:26;21.30;99.90
7325;DHT22;3703;48.016;7.802;2022-10-28T17:50:14;21.20;99.90
7325;DHT22;3703;48.016;7.802;2022-10-28T17:53:02;21.10;99.90
7325;DHT22;3703;48.016;7.802;2022-10-28T17:55:54;21.00;99.90
7325;DHT22;3703;48.016;7.802;2022-10-28T17:58:42;20.90;99.90
7325;DHT22;3703;48.016;7.802;2022-10-28T18:01:33;20.90;99.90
7325;DHT22;3703;48.016;7.802;2022-10-28T18:04:21;20.90;99.90
7325;DHT22;3703;48.016;7.802;2022-10-28T18:07:11;20.90;99.90
7325;DHT22;3703;48.016;7.802;2022-10-28T18:09:58;20.80;99.90
7325;DHT22;3703;48.016;7.802;2022-10-28T18:12:48;20.70;99.90
7325;DHT22;3703;48.016;7.802;2022-10-28T18:15:37;20.70;99.90
7325;DHT22;3703;48.016;7.802;2022-10-28T18:18:26;20.70;99.90
7325;DHT22;3703;48.016;7.802;2022-10-28T18:21:14;20.60;99.90
7325;DHT22;3703;48.016;7.802;2022-10-28T18:24:01;20.60;99.90
7325;DHT22;3703;48.016;7.802;2022-10-28T18:26:49;20.50;99.90
7325;DHT22;3703;48.016;7.802;2022-10-28T18:29:40;20.40;99.90
7325;DHT22;3703;48.016;7.802;2022-10-28T18:32:27;20.40;99.90
7325;DHT22;3703;48.016;7.802;2022-10-28T18:35:16;20.40;99.90
7325;DHT22;3703;48.016;7.802;2022-10-28T18:38:04;20.50;99.90
7325;DHT22;3703;48.016;7.802;2022-10-28T18:40:51;20.50;99.90
7325;DHT22;3703;48.016;7.802;2022-10-28T18:43:39;20.50;99.90
7325;DHT22;3703;48.016;7.802;2022-10-28T18:46:29;20.40;99.90
7325;DHT22;3703;48.016;7.802;2022-10-28T18:49:18;20.30;99.90
7325;DHT22;3703;48.016;7.802;2022-10-28T18:52:07;20.30;99.90
7325;DHT22;3703;48.016;7.802;2022-10-28T18:54:54;20.20;99.90
7325;DHT22;3703;48.016;7.802;2022-10-28T18:57:42;20.00;99.90
7325;DHT22;3703;48.016;7.802;2022-10-28T19:00:29;19.90;99.90
7325;DHT22;3703;48.016;7.802;2022-10-28T19:03:20;19.90;99.90